ANA1616 RJBB-RJTT
Flight info
| Callsign | ANA1616 |
|---|---|
| Flight time | 0h 55m |
| Altitude | 29000 |
| Route | SOVRI UPRAL YAGYU SHTLE Y71 XAC |
| Aircraft | A320/M-SDE3FGHIRWY/LB1 |
Departure
| Time | 2026-05-04 18:48 |
|---|---|
| Airport | Kansai International Airport (RJBB) |
Arrival
| Time | 2026-05-04 19:44 |
|---|---|
| Airport | Tokyo Haneda International Airport (RJTT) |
| Time | Latitude | Longitude | Altitude | Speed | Heading |
|---|---|---|---|---|---|
| 2026-05-04 18:10 | 34.43087 | 135.24101 | 19 ft | 0 kts | 323° |
| 2026-05-04 18:27 | 34.43074 | 135.24112 | 21 ft | 4 kts | 319° |
| 2026-05-04 18:27 | 34.43056 | 135.24136 | 20 ft | 4 kts | 300° |
| 2026-05-04 18:28 | 34.43047 | 135.24165 | 19 ft | 3 kts | 274° |
| 2026-05-04 18:28 | 34.43046 | 135.24174 | 19 ft | 0 kts | 273° |
| 2026-05-04 18:36 | 34.43029 | 135.24150 | 21 ft | 14 kts | 202° |
| 2026-05-04 18:36 | 34.42947 | 135.24067 | 18 ft | 15 kts | 239° |
| 2026-05-04 18:36 | 34.42886 | 135.23976 | 18 ft | 14 kts | 231° |
| 2026-05-04 18:37 | 34.42811 | 135.23867 | 18 ft | 20 kts | 242° |
| 2026-05-04 18:37 | 34.42816 | 135.23728 | 18 ft | 15 kts | 328° |
| 2026-05-04 18:37 | 34.42893 | 135.23640 | 20 ft | 15 kts | 319° |
| 2026-05-04 18:37 | 34.42980 | 135.23561 | 21 ft | 16 kts | 323° |
| 2026-05-04 18:38 | 34.42999 | 135.23445 | 21 ft | 16 kts | 249° |
| 2026-05-04 18:38 | 34.42937 | 135.23345 | 19 ft | 14 kts | 228° |
| 2026-05-04 18:38 | 34.42918 | 135.23253 | 19 ft | 2 kts | 306° |
| 2026-05-04 18:38 | 34.42937 | 135.23229 | 22 ft | 12 kts | 316° |
| 2026-05-04 18:39 | 34.43044 | 135.23132 | 22 ft | 20 kts | 324° |
| 2026-05-04 18:39 | 34.43140 | 135.23034 | 24 ft | 17 kts | 320° |
| 2026-05-04 18:39 | 34.43221 | 135.22953 | 23 ft | 15 kts | 320° |
| 2026-05-04 18:39 | 34.43303 | 135.22876 | 26 ft | 15 kts | 321° |
| 2026-05-04 18:40 | 34.43388 | 135.22796 | 26 ft | 16 kts | 322° |
| 2026-05-04 18:40 | 34.43470 | 135.22708 | 28 ft | 16 kts | 321° |
| 2026-05-04 18:40 | 34.43558 | 135.22627 | 27 ft | 16 kts | 324° |
| 2026-05-04 18:40 | 34.43630 | 135.22559 | 27 ft | 17 kts | 319° |
| 2026-05-04 18:41 | 34.43689 | 135.22500 | 28 ft | 17 kts | 321° |
| 2026-05-04 18:41 | 34.43784 | 135.22419 | 28 ft | 16 kts | 307° |
| 2026-05-04 18:41 | 34.43836 | 135.22313 | 29 ft | 15 kts | 277° |
| 2026-05-04 18:41 | 34.43874 | 135.22269 | 29 ft | 7 kts | 352° |
| 2026-05-04 18:42 | 34.43878 | 135.22253 | 29 ft | 0 kts | 272° |
| 2026-05-04 18:42 | 34.43816 | 135.22185 | 28 ft | 29 kts | 204° |
| 2026-05-04 18:42 | 34.43597 | 135.22095 | 27 ft | 35 kts | 228° |
| 2026-05-04 18:43 | 34.43459 | 135.21857 | 27 ft | 35 kts | 235° |
| 2026-05-04 18:43 | 34.43321 | 135.21619 | 27 ft | 34 kts | 227° |
| 2026-05-04 18:43 | 34.43172 | 135.21399 | 30 ft | 34 kts | 250° |
| 2026-05-04 18:43 | 34.43085 | 135.21287 | 28 ft | 0 kts | 218° |
| 2026-05-04 18:44 | 34.43070 | 135.21273 | 26 ft | 6 kts | 219° |
| 2026-05-04 18:44 | 34.43034 | 135.21228 | 25 ft | 5 kts | 230° |
| 2026-05-04 18:44 | 34.43037 | 135.21132 | 26 ft | 17 kts | 309° |
| 2026-05-04 18:45 | 34.43042 | 135.21127 | 26 ft | 0 kts | 326° |
| 2026-05-04 18:46 | 34.43082 | 135.21093 | 27 ft | 24 kts | 323° |
| 2026-05-04 18:47 | 34.43171 | 135.21091 | 27 ft | 10 kts | 53° |
| 2026-05-04 18:47 | 34.43173 | 135.21094 | 27 ft | 0 kts | 57° |
| 2026-05-04 18:47 | 34.43181 | 135.21107 | 26 ft | 13 kts | 49° |
| 2026-05-04 18:48 | 34.43412 | 135.21441 | 28 ft | 90 kts | 52° |
| 2026-05-04 18:48 | 34.43981 | 135.22276 | 30 ft | 162 kts | 53° |
| 2026-05-04 18:48 | 34.44884 | 135.23349 | 292 ft | 194 kts | 41° |
| 2026-05-04 18:48 | 34.45773 | 135.24591 | 1133 ft | 195 kts | 52° |
| 2026-05-04 18:49 | 34.46597 | 135.25878 | 2116 ft | 195 kts | 40° |
| 2026-05-04 18:49 | 34.47728 | 135.26668 | 3226 ft | 186 kts | 13° |
| 2026-05-04 18:49 | 34.48974 | 135.26708 | 4239 ft | 179 kts | 341° |
| 2026-05-04 18:49 | 34.49942 | 135.25715 | 4776 ft | 199 kts | 299° |
| 2026-05-04 18:50 | 34.50069 | 135.23969 | 5116 ft | 225 kts | 256° |
| 2026-05-04 18:50 | 34.49124 | 135.22413 | 5653 ft | 240 kts | 220° |
| 2026-05-04 18:50 | 34.47706 | 135.21322 | 6372 ft | 244 kts | 208° |
| 2026-05-04 18:50 | 34.46042 | 135.20785 | 6992 ft | 252 kts | 187° |
| 2026-05-04 18:51 | 34.44295 | 135.21041 | 7584 ft | 259 kts | 154° |
| 2026-05-04 18:51 | 34.42962 | 135.22417 | 8122 ft | 261 kts | 117° |
| 2026-05-04 18:51 | 34.42455 | 135.24541 | 8426 ft | 269 kts | 85° |
| 2026-05-04 18:51 | 34.42653 | 135.26798 | 9000 ft | 271 kts | 72° |
| 2026-05-04 18:52 | 34.43086 | 135.29033 | 9654 ft | 275 kts | 69° |
| 2026-05-04 18:52 | 34.43561 | 135.31299 | 10278 ft | 280 kts | 70° |
| 2026-05-04 18:52 | 34.44026 | 135.33607 | 10876 ft | 284 kts | 70° |
| 2026-05-04 18:52 | 34.44500 | 135.35948 | 11476 ft | 288 kts | 71° |
| 2026-05-04 18:53 | 34.44961 | 135.38307 | 11999 ft | 298 kts | 72° |
| 2026-05-04 18:53 | 34.45435 | 135.40857 | 12202 ft | 322 kts | 73° |
| 2026-05-04 18:53 | 34.45919 | 135.43600 | 12435 ft | 344 kts | 74° |
| 2026-05-04 18:53 | 34.46412 | 135.46533 | 12605 ft | 366 kts | 75° |
| 2026-05-04 18:54 | 34.46919 | 135.49623 | 12991 ft | 379 kts | 75° |
| 2026-05-04 18:54 | 34.47431 | 135.52784 | 13593 ft | 385 kts | 75° |
| 2026-05-04 18:54 | 34.47949 | 135.55997 | 14196 ft | 391 kts | 75° |
| 2026-05-04 18:54 | 34.48476 | 135.59247 | 14754 ft | 396 kts | 76° |
| 2026-05-04 18:55 | 34.49014 | 135.62539 | 15313 ft | 400 kts | 76° |
| 2026-05-04 18:55 | 34.50102 | 135.69195 | 16408 ft | 410 kts | 76° |
| 2026-05-04 18:55 | 34.50657 | 135.72606 | 16953 ft | 415 kts | 76° |
| 2026-05-04 18:56 | 34.51213 | 135.76051 | 17481 ft | 420 kts | 77° |
| 2026-05-04 18:56 | 34.51777 | 135.79546 | 18014 ft | 424 kts | 77° |
| 2026-05-04 18:56 | 34.52346 | 135.83083 | 18531 ft | 429 kts | 77° |
| 2026-05-04 18:56 | 34.52920 | 135.86656 | 18986 ft | 434 kts | 77° |
| 2026-05-04 18:57 | 34.53500 | 135.90275 | 19419 ft | 440 kts | 78° |
| 2026-05-04 18:57 | 34.54085 | 135.93929 | 19851 ft | 445 kts | 78° |
| 2026-05-04 18:57 | 34.54857 | 135.97529 | 20265 ft | 449 kts | 69° |
| 2026-05-04 18:57 | 34.55918 | 136.01106 | 20704 ft | 453 kts | 68° |
| 2026-05-04 18:58 | 34.56993 | 136.04729 | 21147 ft | 459 kts | 68° |
| 2026-05-04 18:58 | 34.58076 | 136.08392 | 21560 ft | 464 kts | 69° |
| 2026-05-04 18:58 | 34.59167 | 136.12099 | 21978 ft | 469 kts | 69° |
| 2026-05-04 18:58 | 34.60264 | 136.15846 | 22387 ft | 474 kts | 69° |
| 2026-05-04 18:59 | 34.61368 | 136.19635 | 22794 ft | 479 kts | 69° |
| 2026-05-04 18:59 | 34.62484 | 136.23469 | 23185 ft | 484 kts | 69° |
| 2026-05-04 18:59 | 34.63609 | 136.27334 | 23582 ft | 488 kts | 69° |
| 2026-05-04 18:59 | 34.64731 | 136.31185 | 23898 ft | 493 kts | 69° |
| 2026-05-04 19:00 | 34.65880 | 136.35127 | 24204 ft | 497 kts | 69° |
| 2026-05-04 19:00 | 34.67042 | 136.39105 | 24487 ft | 501 kts | 69° |
| 2026-05-04 19:00 | 34.68211 | 136.43110 | 24776 ft | 506 kts | 70° |
| 2026-05-04 19:00 | 34.69386 | 136.47154 | 25053 ft | 510 kts | 70° |
| 2026-05-04 19:01 | 34.70567 | 136.51238 | 25325 ft | 514 kts | 70° |
| 2026-05-04 19:01 | 34.71752 | 136.55346 | 25592 ft | 518 kts | 70° |
| 2026-05-04 19:01 | 34.72948 | 136.59492 | 25859 ft | 522 kts | 71° |
| 2026-05-04 19:01 | 34.74137 | 136.63615 | 26121 ft | 525 kts | 71° |
| 2026-05-04 19:02 | 34.75347 | 136.67820 | 26380 ft | 529 kts | 71° |
| 2026-05-04 19:02 | 34.76564 | 136.72053 | 26627 ft | 533 kts | 71° |
| 2026-05-04 19:02 | 34.77793 | 136.76329 | 26880 ft | 537 kts | 71° |
| 2026-05-04 19:02 | 34.79027 | 136.80632 | 27140 ft | 540 kts | 71° |
| 2026-05-04 19:03 | 34.80269 | 136.84963 | 27388 ft | 544 kts | 72° |
| 2026-05-04 19:03 | 34.81515 | 136.89317 | 27661 ft | 547 kts | 72° |
| 2026-05-04 19:03 | 34.82618 | 136.93684 | 27915 ft | 547 kts | 83° |
| 2026-05-04 19:03 | 34.82819 | 136.98253 | 28143 ft | 537 kts | 101° |
| 2026-05-04 19:04 | 34.82249 | 137.02712 | 28377 ft | 531 kts | 110° |
| 2026-05-04 19:04 | 34.81494 | 137.07123 | 28621 ft | 535 kts | 108° |
| 2026-05-04 19:04 | 34.80902 | 137.11616 | 28875 ft | 541 kts | 105° |
| 2026-05-04 19:04 | 34.80440 | 137.16176 | 29029 ft | 544 kts | 103° |
| 2026-05-04 19:05 | 34.79664 | 137.25251 | 29059 ft | 536 kts | 104° |
| 2026-05-04 19:05 | 34.78775 | 137.34170 | 29054 ft | 533 kts | 105° |
| 2026-05-04 19:06 | 34.77721 | 137.43076 | 29055 ft | 532 kts | 107° |
| 2026-05-04 19:06 | 34.76641 | 137.51982 | 29050 ft | 533 kts | 106° |
| 2026-05-04 19:07 | 34.75594 | 137.60901 | 29033 ft | 533 kts | 106° |
| 2026-05-04 19:07 | 34.74580 | 137.69775 | 29021 ft | 534 kts | 106° |
| 2026-05-04 19:08 | 34.73698 | 137.78747 | 29012 ft | 536 kts | 104° |
| 2026-05-04 19:08 | 34.72903 | 137.87759 | 28998 ft | 536 kts | 104° |
| 2026-05-04 19:09 | 34.72076 | 137.96765 | 29016 ft | 536 kts | 105° |
| 2026-05-04 19:09 | 34.71461 | 138.05827 | 29014 ft | 544 kts | 97° |
| 2026-05-04 19:10 | 34.71483 | 138.14960 | 29020 ft | 544 kts | 97° |
| 2026-05-04 19:10 | 34.71516 | 138.24154 | 29020 ft | 544 kts | 97° |
| 2026-05-04 19:11 | 34.71547 | 138.33341 | 29014 ft | 543 kts | 97° |
| 2026-05-04 19:11 | 34.71564 | 138.42511 | 29010 ft | 543 kts | 97° |
| 2026-05-04 19:12 | 34.71567 | 138.56303 | 29015 ft | 551 kts | 97° |
| 2026-05-04 19:13 | 34.71571 | 138.65625 | 28078 ft | 554 kts | 96° |
| 2026-05-04 19:13 | 34.71570 | 138.70321 | 27129 ft | 555 kts | 96° |
| 2026-05-04 19:13 | 34.71572 | 138.74986 | 26271 ft | 546 kts | 95° |
| 2026-05-04 19:13 | 34.71575 | 138.79573 | 25144 ft | 539 kts | 95° |
| 2026-05-04 19:14 | 34.71573 | 138.84093 | 24106 ft | 530 kts | 95° |
| 2026-05-04 19:14 | 34.71562 | 138.88485 | 23009 ft | 523 kts | 95° |
| 2026-05-04 19:14 | 34.71543 | 138.92860 | 21932 ft | 513 kts | 94° |
| 2026-05-04 19:14 | 34.71518 | 138.97142 | 21047 ft | 500 kts | 94° |
| 2026-05-04 19:15 | 34.71492 | 139.01301 | 20529 ft | 485 kts | 94° |
| 2026-05-04 19:15 | 34.71468 | 139.05351 | 20281 ft | 474 kts | 94° |
| 2026-05-04 19:15 | 34.71446 | 139.09320 | 19945 ft | 467 kts | 94° |
| 2026-05-04 19:15 | 34.71425 | 139.13254 | 19455 ft | 464 kts | 93° |
| 2026-05-04 19:16 | 34.71401 | 139.17161 | 18972 ft | 461 kts | 93° |
| 2026-05-04 19:16 | 34.71375 | 139.21045 | 18479 ft | 459 kts | 92° |
| 2026-05-04 19:16 | 34.71348 | 139.24863 | 17943 ft | 457 kts | 92° |
| 2026-05-04 19:16 | 34.71321 | 139.28704 | 17441 ft | 453 kts | 92° |
| 2026-05-04 19:17 | 34.71293 | 139.32516 | 16930 ft | 449 kts | 92° |
| 2026-05-04 19:17 | 34.71270 | 139.36291 | 16414 ft | 446 kts | 90° |
| 2026-05-04 19:17 | 34.71567 | 139.40033 | 15901 ft | 445 kts | 78° |
| 2026-05-04 19:17 | 34.72418 | 139.43628 | 15379 ft | 441 kts | 66° |
| 2026-05-04 19:18 | 34.73763 | 139.46938 | 14867 ft | 435 kts | 57° |
| 2026-05-04 19:18 | 34.75243 | 139.50138 | 14341 ft | 433 kts | 57° |
| 2026-05-04 19:18 | 34.76686 | 139.53282 | 13817 ft | 431 kts | 57° |
| 2026-05-04 19:18 | 34.78114 | 139.56416 | 13681 ft | 417 kts | 58° |
| 2026-05-04 19:19 | 34.79490 | 139.59449 | 13526 ft | 403 kts | 58° |
| 2026-05-04 19:19 | 34.80824 | 139.62393 | 13407 ft | 391 kts | 57° |
| 2026-05-04 19:19 | 34.82117 | 139.65240 | 13276 ft | 379 kts | 57° |
| 2026-05-04 19:19 | 34.83377 | 139.68002 | 13145 ft | 368 kts | 57° |
| 2026-05-04 19:20 | 34.84592 | 139.70664 | 12983 ft | 358 kts | 57° |
| 2026-05-04 19:20 | 34.85788 | 139.73290 | 12991 ft | 344 kts | 57° |
| 2026-05-04 19:20 | 34.86839 | 139.75798 | 12991 ft | 333 kts | 66° |
| 2026-05-04 19:20 | 34.87400 | 139.78517 | 12994 ft | 331 kts | 84° |
| 2026-05-04 19:21 | 34.87368 | 139.81303 | 12996 ft | 329 kts | 102° |
| 2026-05-04 19:21 | 34.86801 | 139.83983 | 13000 ft | 326 kts | 111° |
| 2026-05-04 19:21 | 34.86131 | 139.86623 | 12998 ft | 327 kts | 111° |
| 2026-05-04 19:21 | 34.85466 | 139.89269 | 13002 ft | 327 kts | 111° |
| 2026-05-04 19:22 | 34.84821 | 139.91920 | 12998 ft | 328 kts | 107° |
| 2026-05-04 19:22 | 34.84376 | 139.94647 | 12956 ft | 331 kts | 100° |
| 2026-05-04 19:22 | 34.84181 | 139.97393 | 12692 ft | 329 kts | 92° |
| 2026-05-04 19:22 | 34.84278 | 140.00169 | 12437 ft | 327 kts | 83° |
| 2026-05-04 19:23 | 34.84577 | 140.02900 | 12188 ft | 324 kts | 82° |
| 2026-05-04 19:23 | 34.84879 | 140.05605 | 11935 ft | 320 kts | 82° |
| 2026-05-04 19:23 | 34.85263 | 140.08256 | 11685 ft | 316 kts | 74° |
| 2026-05-04 19:23 | 34.85914 | 140.10782 | 11444 ft | 310 kts | 66° |
| 2026-05-04 19:24 | 34.86814 | 140.13141 | 11200 ft | 304 kts | 57° |
| 2026-05-04 19:24 | 34.87846 | 140.15363 | 10963 ft | 299 kts | 57° |
| 2026-05-04 19:24 | 34.88856 | 140.17547 | 10722 ft | 294 kts | 57° |
| 2026-05-04 19:24 | 34.89837 | 140.19654 | 10478 ft | 283 kts | 54° |
| 2026-05-04 19:25 | 34.90941 | 140.21553 | 10238 ft | 268 kts | 46° |
| 2026-05-04 19:25 | 34.92175 | 140.23173 | 10021 ft | 256 kts | 38° |
| 2026-05-04 19:25 | 34.93523 | 140.24549 | 9935 ft | 250 kts | 31° |
| 2026-05-04 19:25 | 34.94927 | 140.25790 | 9812 ft | 248 kts | 31° |
| 2026-05-04 19:26 | 34.96329 | 140.27009 | 9672 ft | 246 kts | 26° |
| 2026-05-04 19:26 | 34.97854 | 140.27876 | 9556 ft | 239 kts | 12° |
| 2026-05-04 19:26 | 34.99437 | 140.28298 | 9451 ft | 234 kts | 1° |
| 2026-05-04 19:26 | 35.01042 | 140.28305 | 9359 ft | 228 kts | 348° |
| 2026-05-04 19:27 | 35.02568 | 140.27874 | 9262 ft | 223 kts | 334° |
| 2026-05-04 19:27 | 35.03941 | 140.27040 | 9157 ft | 219 kts | 322° |
| 2026-05-04 19:27 | 35.05110 | 140.25873 | 9053 ft | 216 kts | 310° |
| 2026-05-04 19:27 | 35.06036 | 140.24449 | 8970 ft | 214 kts | 299° |
| 2026-05-04 19:28 | 35.06690 | 140.22835 | 8889 ft | 212 kts | 289° |
| 2026-05-04 19:28 | 35.07242 | 140.21168 | 8814 ft | 212 kts | 290° |
| 2026-05-04 19:28 | 35.07793 | 140.19527 | 8563 ft | 205 kts | 290° |
| 2026-05-04 19:28 | 35.08334 | 140.17920 | 8044 ft | 203 kts | 290° |
| 2026-05-04 19:29 | 35.08850 | 140.16389 | 7765 ft | 192 kts | 290° |
| 2026-05-04 19:29 | 35.09353 | 140.14893 | 7591 ft | 190 kts | 289° |
| 2026-05-04 19:29 | 35.09854 | 140.13400 | 7443 ft | 190 kts | 290° |
| 2026-05-04 19:29 | 35.10356 | 140.11909 | 7303 ft | 190 kts | 289° |
| 2026-05-04 19:30 | 35.10860 | 140.10407 | 7166 ft | 192 kts | 290° |
| 2026-05-04 19:30 | 35.11360 | 140.08913 | 7023 ft | 186 kts | 289° |
| 2026-05-04 19:30 | 35.11835 | 140.07493 | 6884 ft | 175 kts | 289° |
| 2026-05-04 19:30 | 35.12282 | 140.06154 | 6763 ft | 165 kts | 289° |
| 2026-05-04 19:31 | 35.12706 | 140.04890 | 6644 ft | 158 kts | 289° |
| 2026-05-04 19:31 | 35.13113 | 140.03670 | 6523 ft | 157 kts | 288° |
| 2026-05-04 19:31 | 35.13524 | 140.02435 | 6407 ft | 157 kts | 289° |
| 2026-05-04 19:31 | 35.13941 | 140.01182 | 6317 ft | 166 kts | 289° |
| 2026-05-04 19:32 | 35.14387 | 139.99835 | 6174 ft | 172 kts | 290° |
| 2026-05-04 19:32 | 35.15043 | 139.98616 | 5995 ft | 174 kts | 319° |
| 2026-05-04 19:32 | 35.16145 | 139.98016 | 5820 ft | 177 kts | 353° |
| 2026-05-04 19:32 | 35.17384 | 139.98048 | 5662 ft | 178 kts | 359° |
| 2026-05-04 19:33 | 35.18197 | 139.98081 | 5536 ft | 176 kts | 358° |
| 2026-05-04 19:33 | 35.19415 | 139.98123 | 5367 ft | 174 kts | 358° |
| 2026-05-04 19:33 | 35.20999 | 139.98174 | 5131 ft | 170 kts | 357° |
| 2026-05-04 19:33 | 35.22177 | 139.98213 | 4960 ft | 168 kts | 358° |
| 2026-05-04 19:34 | 35.23337 | 139.98252 | 4798 ft | 166 kts | 357° |
| 2026-05-04 19:34 | 35.24477 | 139.98287 | 4633 ft | 163 kts | 357° |
| 2026-05-04 19:34 | 35.25224 | 139.98294 | 4520 ft | 160 kts | 356° |
| 2026-05-04 19:34 | 35.25957 | 139.98305 | 4415 ft | 158 kts | 355° |
| 2026-05-04 19:35 | 35.27053 | 139.98299 | 4253 ft | 156 kts | 354° |
| 2026-05-04 19:35 | 35.28133 | 139.98282 | 4103 ft | 154 kts | 355° |
| 2026-05-04 19:35 | 35.29161 | 139.98026 | 4028 ft | 150 kts | 333° |
| 2026-05-04 19:35 | 35.30373 | 139.97192 | 4006 ft | 149 kts | 329° |
| 2026-05-04 19:36 | 35.31257 | 139.96571 | 4005 ft | 149 kts | 329° |
| 2026-05-04 19:36 | 35.31866 | 139.96143 | 4010 ft | 149 kts | 329° |
| 2026-05-04 19:36 | 35.32763 | 139.95511 | 4005 ft | 146 kts | 329° |
| 2026-05-04 19:36 | 35.33602 | 139.94920 | 3998 ft | 135 kts | 329° |
| 2026-05-04 19:37 | 35.34399 | 139.94358 | 4002 ft | 133 kts | 329° |
| 2026-05-04 19:37 | 35.35201 | 139.93793 | 4001 ft | 133 kts | 328° |
| 2026-05-04 19:37 | 35.36001 | 139.93228 | 4001 ft | 133 kts | 328° |
| 2026-05-04 19:37 | 35.37070 | 139.92474 | 3880 ft | 132 kts | 328° |
| 2026-05-04 19:38 | 35.37595 | 139.92103 | 3787 ft | 131 kts | 328° |
| 2026-05-04 19:38 | 35.38382 | 139.91547 | 3632 ft | 130 kts | 329° |
| 2026-05-04 19:38 | 35.39162 | 139.90996 | 3471 ft | 128 kts | 329° |
| 2026-05-04 19:38 | 35.39932 | 139.90453 | 3305 ft | 128 kts | 329° |
| 2026-05-04 19:39 | 35.40688 | 139.89918 | 3137 ft | 127 kts | 329° |
| 2026-05-04 19:39 | 35.41445 | 139.89383 | 2966 ft | 125 kts | 330° |
| 2026-05-04 19:39 | 35.42191 | 139.88856 | 2799 ft | 123 kts | 330° |
| 2026-05-04 19:39 | 35.42922 | 139.88339 | 2633 ft | 120 kts | 330° |
| 2026-05-04 19:40 | 35.43638 | 139.87833 | 2473 ft | 118 kts | 330° |
| 2026-05-04 19:40 | 35.44341 | 139.87336 | 2317 ft | 116 kts | 330° |
| 2026-05-04 19:40 | 35.45036 | 139.86844 | 2159 ft | 115 kts | 331° |
| 2026-05-04 19:40 | 35.45722 | 139.86358 | 2012 ft | 113 kts | 332° |
| 2026-05-04 19:41 | 35.46400 | 139.85879 | 1857 ft | 111 kts | 333° |
| 2026-05-04 19:41 | 35.47057 | 139.85414 | 1710 ft | 110 kts | 333° |
| 2026-05-04 19:41 | 35.47723 | 139.84942 | 1548 ft | 111 kts | 332° |
| 2026-05-04 19:41 | 35.48399 | 139.84463 | 1395 ft | 113 kts | 332° |
| 2026-05-04 19:42 | 35.49105 | 139.83964 | 1316 ft | 117 kts | 332° |
| 2026-05-04 19:42 | 35.49864 | 139.83425 | 1045 ft | 131 kts | 332° |
| 2026-05-04 19:42 | 35.50664 | 139.82858 | 864 ft | 132 kts | 330° |
| 2026-05-04 19:42 | 35.51454 | 139.82298 | 693 ft | 130 kts | 332° |
| 2026-05-04 19:43 | 35.52224 | 139.81752 | 525 ft | 128 kts | 333° |
| 2026-05-04 19:43 | 35.52976 | 139.81218 | 357 ft | 122 kts | 333° |
| 2026-05-04 19:43 | 35.53689 | 139.80693 | 177 ft | 115 kts | 338° |
| 2026-05-04 19:43 | 35.54329 | 139.80319 | 26 ft | 58 kts | 333° |
| 2026-05-04 19:44 | 35.54528 | 139.80150 | 24 ft | 31 kts | 322° |
| 2026-05-04 19:44 | 35.54717 | 139.79987 | 24 ft | 33 kts | 326° |
| 2026-05-04 19:44 | 35.54904 | 139.79850 | 24 ft | 31 kts | 330° |
| 2026-05-04 19:44 | 35.55098 | 139.79714 | 26 ft | 33 kts | 328° |
| 2026-05-04 19:45 | 35.55296 | 139.79567 | 26 ft | 34 kts | 330° |
| 2026-05-04 19:45 | 35.55503 | 139.79443 | 25 ft | 32 kts | 339° |
| 2026-05-04 19:45 | 35.55676 | 139.79293 | 24 ft | 29 kts | 311° |
| 2026-05-04 19:45 | 35.55788 | 139.79115 | 23 ft | 9 kts | 298° |
| 2026-05-04 19:46 | 35.55797 | 139.79086 | 24 ft | 12 kts | 282° |
| 2026-05-04 19:46 | 35.55748 | 139.78962 | 23 ft | 0 kts | 240° |
| 2026-05-04 19:48 | 35.55748 | 139.78961 | 23 ft | 1 kts | 240° |
| 2026-05-04 19:48 | 35.55735 | 139.78932 | 25 ft | 4 kts | 240° |
| 2026-05-04 19:48 | 35.55722 | 139.78905 | 23 ft | 5 kts | 240° |
| 2026-05-04 19:48 | 35.55697 | 139.78847 | 24 ft | 7 kts | 240° |
| 2026-05-04 19:49 | 35.55670 | 139.78795 | 22 ft | 7 kts | 238° |
| 2026-05-04 19:49 | 35.55663 | 139.78780 | 22 ft | 0 kts | 239° |
| 2026-05-04 19:49 | 35.55652 | 139.78770 | 22 ft | 8 kts | 200° |
| 2026-05-04 19:49 | 35.55605 | 139.78784 | 24 ft | 5 kts | 156° |
| 2026-05-04 19:50 | 35.55589 | 139.78795 | 24 ft | 1 kts | 148° |